Terminal Aerodrome Forecast
Issued by NWS

Home | Current Version | Previous Version | Text Only | Print | Product List | Glossary On
Versions: 1 2 3 4 5 6 7 8 9 10 11 12 13 14 15 16
000
FTPA31 PHFO 260527
TAFHKO
TAF
PHKO 260527Z 2606/2706 VRB06KT P6SM FEW030 SCT060
     FM260800 10006KT P6SM FEW040
     FM261900 26010KT P6SM FEW030 SCT060=

USA.gov is the U.S. government's official web portal to all federal, state and local government web resources and services.